createdAt,value
2018-01-08T00:01:55.562Z,28.73
2018-01-08T00:04:25.134Z,29.37
2018-01-08T00:06:54.574Z,30.87
2018-01-08T00:09:24.029Z,30.37
2018-01-08T00:11:53.487Z,29.30
2018-01-08T00:14:22.985Z,28.10
2018-01-08T00:16:52.447Z,25.90
2018-01-08T00:19:21.887Z,29.20
2018-01-08T00:21:52.877Z,27.90
2018-01-08T00:24:22.439Z,25.23
2018-01-08T00:26:51.875Z,25.20
2018-01-08T00:29:21.326Z,28.73
2018-01-08T00:31:50.846Z,30.37
2018-01-08T00:34:20.320Z,25.33
2018-01-08T00:36:49.753Z,29.30
2018-01-08T00:39:19.194Z,28.40
2018-01-08T00:41:48.771Z,31.67
2018-01-08T00:44:18.217Z,29.33
2018-01-08T00:46:47.681Z,29.40
2018-01-08T00:49:17.120Z,29.80
2018-01-08T00:51:46.230Z,28.13
2018-01-08T00:54:15.774Z,30.50
2018-01-08T00:56:45.233Z,27.80
2018-01-08T00:59:14.886Z,33.90
2018-01-08T01:01:44.333Z,28.77
2018-01-08T01:04:13.793Z,27.93
2018-01-08T01:06:43.285Z,31.17
2018-01-08T01:09:12.731Z,28.03
2018-01-08T01:11:42.198Z,30.63
2018-01-08T01:14:11.630Z,30.80
2018-01-08T01:16:41.087Z,31.83
2018-01-08T01:19:10.529Z,32.60
2018-01-08T01:21:39.982Z,31.07
2018-01-08T01:24:09.437Z,30.03
2018-01-08T01:26:38.925Z,28.17
2018-01-08T01:29:08.354Z,32.50
2018-01-08T01:31:37.818Z,28.60
2018-01-08T01:34:07.266Z,32.40
2018-01-08T01:36:36.701Z,28.17
2018-01-08T01:39:06.167Z,33.90
2018-01-08T01:41:35.879Z,28.30
2018-01-08T01:44:05.345Z,30.77
2018-01-08T01:46:35.078Z,32.40
2018-01-08T01:49:10.197Z,28.50
2018-01-08T01:51:39.637Z,27.63
2018-01-08T01:54:09.094Z,31.30
2018-01-08T01:56:38.525Z,31.70
2018-01-08T01:59:07.987Z,28.60
2018-01-08T02:01:37.430Z,28.67
2018-01-08T02:04:06.917Z,28.80
2018-01-08T02:06:36.368Z,33.53
2018-01-08T02:09:05.802Z,30.47
2018-01-08T02:11:35.258Z,31.90
2018-01-08T02:14:04.853Z,32.43
2018-01-08T02:16:34.297Z,28.40
2018-01-08T02:19:03.786Z,31.73
2018-01-08T02:21:33.249Z,30.63
2018-01-08T02:24:02.681Z,29.87
2018-01-08T02:26:32.141Z,32.23
2018-01-08T02:29:01.581Z,30.73
2018-01-08T02:31:31.033Z,33.73
2018-01-08T02:34:00.590Z,30.23
2018-01-08T02:36:30.042Z,27.03
2018-01-08T02:38:59.473Z,32.17
2018-01-08T02:41:28.943Z,30.87
2018-01-08T02:43:58.425Z,28.90
2018-01-08T02:46:27.887Z,34.20
2018-01-08T02:48:57.357Z,31.67
2018-01-08T02:51:26.809Z,30.83
2018-01-08T02:53:56.246Z,30.73
2018-01-08T02:56:25.882Z,30.30
2018-01-08T02:58:55.425Z,34.00
2018-01-08T03:01:24.885Z,33.40
2018-01-08T03:03:54.317Z,28.70
2018-01-08T03:06:23.762Z,32.40
2018-01-08T03:08:53.222Z,30.00
2018-01-08T03:11:22.650Z,32.57
2018-01-08T03:13:52.103Z,37.67
2018-01-08T03:16:21.545Z,32.13
2018-01-08T03:18:51.133Z,33.47
2018-01-08T03:21:20.567Z,28.73
2018-01-08T03:23:50.046Z,35.63
2018-01-08T03:26:19.519Z,31.90
2018-01-08T03:28:48.961Z,33.83
2018-01-08T03:31:18.432Z,31.43
2018-01-08T03:33:47.861Z,34.10
2018-01-08T03:36:17.325Z,34.73
2018-01-08T03:38:46.773Z,34.60
2018-01-08T03:41:16.238Z,35.37
2018-01-08T03:43:45.682Z,33.30
2018-01-08T03:46:15.157Z,32.20
2018-01-08T03:48:44.710Z,32.00
2018-01-08T03:51:14.142Z,34.70
2018-01-08T03:53:43.602Z,34.90
2018-01-08T03:56:13.042Z,32.80
2018-01-08T03:58:42.516Z,34.30
2018-01-08T04:01:11.945Z,38.93
2018-01-08T04:03:41.406Z,33.43
2018-01-08T04:06:10.862Z,33.67
2018-01-08T04:08:40.342Z,35.20
2018-01-08T04:11:09.837Z,36.77
2018-01-08T04:13:39.283Z,34.27
2018-01-08T04:16:08.735Z,34.50
2018-01-08T04:18:38.258Z,33.80
2018-01-08T04:21:07.711Z,32.13
2018-01-08T04:23:37.490Z,32.93
2018-01-08T04:26:06.927Z,34.47
2018-01-08T04:28:36.386Z,36.23
2018-01-08T04:31:05.841Z,35.93
2018-01-08T04:33:35.293Z,31.53
2018-01-08T04:36:04.943Z,40.17
2018-01-08T04:38:34.421Z,38.20
2018-01-08T04:41:03.914Z,35.83
2018-01-08T04:43:33.374Z,32.87
2018-01-08T04:46:02.803Z,35.50
2018-01-08T04:48:32.241Z,33.37
2018-01-08T04:51:01.718Z,32.93
2018-01-08T04:53:31.166Z,37.20
2018-01-08T04:56:00.613Z,33.60
2018-01-08T04:58:30.062Z,36.40
2018-01-08T05:00:59.530Z,36.00
2018-01-08T05:03:29.169Z,35.90
2018-01-08T05:05:58.634Z,38.73
2018-01-08T05:08:28.077Z,34.33
2018-01-08T05:10:57.561Z,32.13
2018-01-08T05:13:27.005Z,41.70
2018-01-08T05:15:56.496Z,32.97
2018-01-08T05:18:25.935Z,37.50
2018-01-08T05:20:55.412Z,54.37
2018-01-08T05:23:24.869Z,36.90
2018-01-08T05:25:54.306Z,40.83
2018-01-08T05:28:23.759Z,36.20
2018-01-08T05:30:53.197Z,31.60
2018-01-08T05:33:22.658Z,31.23
2018-01-08T05:35:52.113Z,36.47
2018-01-08T05:38:21.572Z,39.67
2018-01-08T05:40:51.010Z,35.67
2018-01-08T05:43:20.462Z,38.10
2018-01-08T05:45:49.906Z,34.43
2018-01-08T05:48:19.365Z,34.63
2018-01-08T05:50:48.806Z,34.60
2018-01-08T05:53:18.269Z,33.97
2018-01-08T05:55:47.737Z,35.40
2018-01-08T05:58:17.368Z,32.67
2018-01-08T06:00:46.854Z,35.00
2018-01-08T06:03:16.425Z,34.30
2018-01-08T06:05:45.905Z,33.70
2018-01-08T06:08:15.358Z,37.53
2018-01-08T06:10:44.818Z,34.00
2018-01-08T06:13:14.294Z,37.80
2018-01-08T06:15:43.740Z,35.93
2018-01-08T06:18:13.201Z,35.57
2018-01-08T06:20:42.699Z,35.17
2018-01-08T06:23:12.175Z,32.90
2018-01-08T06:25:41.633Z,35.27
2018-01-08T06:28:11.089Z,34.13
2018-01-08T06:30:40.554Z,33.97
2018-01-08T06:33:09.991Z,40.20
2018-01-08T06:35:39.562Z,36.50
2018-01-08T06:38:09.003Z,35.97
2018-01-08T06:40:38.441Z,32.87
2018-01-08T06:43:07.893Z,37.30
2018-01-08T06:45:37.329Z,33.17
2018-01-08T06:48:06.783Z,32.83
2018-01-08T06:50:36.234Z,38.10
2018-01-08T06:53:05.730Z,39.00
2018-01-08T06:55:35.302Z,31.90
2018-01-08T06:58:04.769Z,33.70
2018-01-08T07:00:34.202Z,38.87
2018-01-08T07:03:03.666Z,34.20
2018-01-08T07:05:33.121Z,33.70
2018-01-08T07:08:02.576Z,33.10
2018-01-08T07:10:32.013Z,34.80
2018-01-08T07:13:01.462Z,38.23
2018-01-08T07:15:30.920Z,30.33
2018-01-08T07:18:00.375Z,35.23
2018-01-08T07:20:29.809Z,35.17
2018-01-08T07:22:59.263Z,33.77
2018-01-08T07:25:28.705Z,37.40
2018-01-08T07:27:58.154Z,33.50
2018-01-08T07:30:27.669Z,36.03
2018-01-08T07:32:57.121Z,35.47
2018-01-08T07:35:26.556Z,33.13
2018-01-08T07:37:56.026Z,36.70
2018-01-08T07:40:25.538Z,31.60
2018-01-08T07:42:55.130Z,32.80
2018-01-08T07:45:24.654Z,31.73
2018-01-08T07:47:54.121Z,36.00
2018-01-08T07:50:23.586Z,35.03
2018-01-08T07:52:53.030Z,31.93
2018-01-08T07:55:22.555Z,33.10
2018-01-08T07:57:52.022Z,33.47
2018-01-08T08:00:21.497Z,34.40
2018-01-08T08:02:50.942Z,33.87
2018-01-08T08:05:20.420Z,39.23
2018-01-08T08:07:49.895Z,33.10
2018-01-08T08:10:19.516Z,29.37
2018-01-08T08:12:48.943Z,29.27
2018-01-08T08:15:18.381Z,36.43
2018-01-08T08:17:47.841Z,35.50
2018-01-08T08:20:17.282Z,30.63
2018-01-08T08:22:46.785Z,29.63
2018-01-08T08:25:16.242Z,30.77
2018-01-08T08:27:45.733Z,38.40
2018-01-08T08:30:15.250Z,29.30
2018-01-08T08:32:44.724Z,31.47
2018-01-08T08:35:13.982Z,37.33
2018-01-08T08:37:43.476Z,32.10
2018-01-08T08:40:12.906Z,30.80
2018-01-08T08:42:42.410Z,28.53
2018-01-08T08:45:11.872Z,31.50
2018-01-08T08:47:41.316Z,28.00
2018-01-08T08:50:10.801Z,30.80
2018-01-08T08:52:40.241Z,31.03
2018-01-08T08:55:09.692Z,30.10
2018-01-08T08:57:39.176Z,32.77
2018-01-08T09:00:08.618Z,30.77
2018-01-08T09:02:38.054Z,28.40
2018-01-08T09:05:07.582Z,28.03
2018-01-08T09:07:37.065Z,26.77
2018-01-08T09:10:06.670Z,28.80
2018-01-08T09:12:36.338Z,30.10
2018-01-08T09:15:05.798Z,26.50
2018-01-08T09:17:35.233Z,29.57
2018-01-08T09:20:04.717Z,29.03
2018-01-08T09:22:34.156Z,30.90
2018-01-08T09:25:03.609Z,27.40
2018-01-08T09:27:33.098Z,23.47
2018-01-08T09:30:02.714Z,27.33
2018-01-08T09:32:32.306Z,30.70
2018-01-08T09:35:02.070Z,30.07
2018-01-08T09:37:31.530Z,28.67
2018-01-08T09:40:01.026Z,32.63
2018-01-08T09:42:30.516Z,29.00
2018-01-08T09:44:59.991Z,30.30
2018-01-08T09:47:29.446Z,25.33
2018-01-08T09:49:58.911Z,28.17
2018-01-08T09:52:28.371Z,23.03
2018-01-08T09:54:57.871Z,26.40
2018-01-08T09:57:27.482Z,30.50
2018-01-08T09:59:57.078Z,33.00
2018-01-08T10:02:25.990Z,26.50
2018-01-08T10:05:01.194Z,23.30
2018-01-08T10:07:36.207Z,30.30
2018-01-08T10:10:11.246Z,27.60
2018-01-08T10:12:46.223Z,29.70
2018-01-08T10:15:21.340Z,25.57
2018-01-08T10:17:56.426Z,28.53
2018-01-08T10:20:25.905Z,27.43
2018-01-08T10:22:55.362Z,28.30
2018-01-08T10:25:24.798Z,28.80
2018-01-08T10:27:54.263Z,27.90
2018-01-08T10:30:23.398Z,26.03
2018-01-08T10:32:52.566Z,28.43
2018-01-08T10:35:21.895Z,28.17
2018-01-08T10:37:51.329Z,28.47
2018-01-08T10:40:20.838Z,26.87
2018-01-08T10:42:56.111Z,27.03
2018-01-08T10:45:31.199Z,30.37
2018-01-08T10:48:06.325Z,29.23
2018-01-08T10:50:41.459Z,27.90
2018-01-08T10:53:14.414Z,26.70
2018-01-08T10:55:43.877Z,27.80
2018-01-08T10:58:13.330Z,31.20
2018-01-08T11:00:42.590Z,27.53
2018-01-08T11:03:17.314Z,26.13
2018-01-08T11:05:46.761Z,31.50
2018-01-08T11:08:16.226Z,31.27
2018-01-08T11:10:45.720Z,27.43
2018-01-08T11:13:15.170Z,26.13
2018-01-08T11:15:44.294Z,28.83
2018-01-08T11:18:13.414Z,26.70
2018-01-08T11:20:42.870Z,27.53
2018-01-08T11:23:12.305Z,25.43
2018-01-08T11:25:41.454Z,27.17
2018-01-08T11:28:10.943Z,26.43
2018-01-08T11:30:40.386Z,24.67
2018-01-08T11:33:09.854Z,27.50
2018-01-08T11:35:38.974Z,27.07
2018-01-08T11:38:08.098Z,28.70
2018-01-08T11:40:37.198Z,27.70
2018-01-08T11:43:06.325Z,22.90
2018-01-08T11:45:35.429Z,26.93
2018-01-08T11:48:04.559Z,27.63
2018-01-08T11:50:33.665Z,23.70
2018-01-08T11:53:02.827Z,25.47
2018-01-08T11:55:32.137Z,25.40
2018-01-08T11:58:01.262Z,25.07
2018-01-08T12:00:30.374Z,21.07
2018-01-08T12:02:59.882Z,23.93
2018-01-08T12:05:29.063Z,23.87
2018-01-08T12:07:58.193Z,23.97
2018-01-08T12:10:27.339Z,24.57
2018-01-08T12:12:56.474Z,23.93
2018-01-08T12:15:25.926Z,22.57
2018-01-08T12:17:55.216Z,22.83
2018-01-08T12:20:24.662Z,24.13
2018-01-08T12:22:53.858Z,23.83
2018-01-08T12:25:23.306Z,23.73
2018-01-08T12:27:52.890Z,24.63
2018-01-08T12:30:22.474Z,22.30
2018-01-08T12:32:51.929Z,21.23
2018-01-08T12:35:21.415Z,22.63
2018-01-08T12:37:51.093Z,23.30
2018-01-08T12:40:20.525Z,23.87
2018-01-08T12:42:49.982Z,28.10
2018-01-08T12:45:19.419Z,26.87
2018-01-08T12:47:48.883Z,20.27
2018-01-08T12:50:18.311Z,26.80
2018-01-08T12:52:47.763Z,20.40
2018-01-08T12:55:17.218Z,20.73
2018-01-08T12:57:46.707Z,20.70
2018-01-08T13:00:16.222Z,19.93
2018-01-08T13:02:45.650Z,23.80
2018-01-08T13:05:14.823Z,21.07
2018-01-08T13:07:43.926Z,24.27
2018-01-08T13:10:13.375Z,21.83
2018-01-08T13:12:42.853Z,20.50
2018-01-08T13:15:12.314Z,20.83
2018-01-08T13:17:41.769Z,21.67
2018-01-08T13:20:10.886Z,28.63
2018-01-08T13:22:40.348Z,21.40
2018-01-08T13:25:09.453Z,19.90
2018-01-08T13:27:38.942Z,22.80
2018-01-08T13:30:08.413Z,20.83
2018-01-08T13:32:37.858Z,28.30
2018-01-08T13:35:07.311Z,25.50
2018-01-08T13:37:36.746Z,31.03
2018-01-08T13:40:06.270Z,24.10
2018-01-08T13:42:35.710Z,29.17
2018-01-08T13:45:04.842Z,27.50
2018-01-08T13:47:33.951Z,27.60
2018-01-08T13:50:03.086Z,26.90
2018-01-08T13:52:32.373Z,23.13
2018-01-08T13:55:01.982Z,26.53
2018-01-08T13:57:31.141Z,27.47
2018-01-08T14:00:00.323Z,28.73
2018-01-08T14:02:29.702Z,23.93
2018-01-08T14:04:58.806Z,24.40
2018-01-08T14:07:27.938Z,23.10
2018-01-08T14:09:57.064Z,21.80
2018-01-08T14:12:26.180Z,22.07
2018-01-08T14:14:55.619Z,21.00
2018-01-08T14:17:25.076Z,21.90
2018-01-08T14:19:54.526Z,20.53
2018-01-08T14:22:23.990Z,21.33
2018-01-08T14:24:53.421Z,25.97
2018-01-08T14:27:22.547Z,23.17
2018-01-08T14:29:51.994Z,21.33
2018-01-08T14:32:21.126Z,23.53
2018-01-08T14:34:50.603Z,21.57
2018-01-08T14:37:20.109Z,22.13
2018-01-08T14:39:49.542Z,25.27
2018-01-08T14:42:19.237Z,22.30
2018-01-08T14:44:48.906Z,21.00
2018-01-08T14:47:18.362Z,24.10
2018-01-08T14:49:47.845Z,21.33
2018-01-08T14:52:17.357Z,24.07
2018-01-08T14:54:46.855Z,22.10
2018-01-08T14:57:16.305Z,21.37
2018-01-08T14:59:45.767Z,26.23
2018-01-08T15:02:15.214Z,20.53
2018-01-08T15:04:44.686Z,19.30
2018-01-08T15:07:14.124Z,20.10
2018-01-08T15:09:43.690Z,22.00
2018-01-08T15:12:13.197Z,19.53
2018-01-08T15:14:42.630Z,24.77
2018-01-08T15:17:12.093Z,19.40
2018-01-08T15:19:41.334Z,21.27
2018-01-08T15:22:10.894Z,20.90
2018-01-08T15:24:40.554Z,17.50
2018-01-08T15:27:09.954Z,19.80
2018-01-08T15:29:39.403Z,20.73
2018-01-08T15:32:08.866Z,21.17
2018-01-08T15:34:38.305Z,21.77
2018-01-08T15:37:07.758Z,18.57
2018-01-08T15:39:37.217Z,22.50
2018-01-08T15:42:06.657Z,21.87
2018-01-08T15:44:36.137Z,19.40
2018-01-08T15:47:05.588Z,20.97
2018-01-08T15:49:35.050Z,20.20
2018-01-08T15:52:04.494Z,18.63
2018-01-08T15:54:33.990Z,22.90
2018-01-08T15:57:03.444Z,20.67
2018-01-08T15:59:32.896Z,19.77
2018-01-08T16:02:02.405Z,24.63
2018-01-08T16:04:31.911Z,19.27
2018-01-08T16:07:01.182Z,20.37
2018-01-08T16:09:30.627Z,21.80
2018-01-08T16:12:00.206Z,20.50
2018-01-08T16:14:29.670Z,22.10
2018-01-08T16:16:58.789Z,18.50
2018-01-08T16:19:28.274Z,17.77
2018-01-08T16:21:57.707Z,20.13
2018-01-08T16:24:27.163Z,17.83
2018-01-08T16:26:56.617Z,18.77
2018-01-08T16:29:26.054Z,18.93
2018-01-08T16:31:55.506Z,19.80
2018-01-08T16:34:24.958Z,21.37
2018-01-08T16:36:54.504Z,18.70
2018-01-08T16:39:23.986Z,17.60
2018-01-08T16:41:53.514Z,20.57
2018-01-08T16:44:22.969Z,17.83
2018-01-08T16:46:52.442Z,17.93
2018-01-08T16:49:21.935Z,23.57
2018-01-08T16:51:51.386Z,18.90
2018-01-08T16:54:20.852Z,19.57
2018-01-08T16:56:50.318Z,19.07
2018-01-08T16:59:19.873Z,20.40
2018-01-08T17:01:49.321Z,18.83
2018-01-08T17:04:18.825Z,28.97
2018-01-08T17:06:48.265Z,26.80
2018-01-08T17:09:17.864Z,26.23
2018-01-08T17:11:47.360Z,19.27
2018-01-08T17:14:16.496Z,17.97
2018-01-08T17:16:45.951Z,20.07
2018-01-08T17:19:15.498Z,17.30
2018-01-08T17:21:44.950Z,17.50
2018-01-08T17:24:14.457Z,18.37
2018-01-08T17:26:43.915Z,26.47
2018-01-08T17:29:13.375Z,17.60
2018-01-08T17:31:42.830Z,17.23
2018-01-08T17:34:12.406Z,17.00
2018-01-08T17:36:41.875Z,18.50
2018-01-08T17:39:11.382Z,18.33
2018-01-08T17:41:40.519Z,20.20
2018-01-08T17:44:09.995Z,19.00
2018-01-08T17:46:39.463Z,17.67
2018-01-08T17:49:09.066Z,18.27
2018-01-08T17:51:38.527Z,21.80
2018-01-08T17:54:07.971Z,18.80
2018-01-08T17:56:37.432Z,21.63
2018-01-08T17:59:06.912Z,21.00
2018-01-08T18:01:36.362Z,21.43
2018-01-08T18:04:05.839Z,17.83
2018-01-08T18:06:35.357Z,20.13
2018-01-08T18:09:04.461Z,20.90
2018-01-08T18:11:33.930Z,23.03
2018-01-08T18:14:03.378Z,21.60
2018-01-08T18:16:32.836Z,19.43
2018-01-08T18:19:02.318Z,19.07
2018-01-08T18:21:31.758Z,24.00
2018-01-08T18:24:01.230Z,20.17
2018-01-08T18:26:30.670Z,19.43
2018-01-08T18:29:00.139Z,19.53
2018-01-08T18:31:29.601Z,20.90
2018-01-08T18:33:59.181Z,19.67
2018-01-08T18:36:28.619Z,18.87
2018-01-08T18:38:58.086Z,19.00
2018-01-08T18:41:27.576Z,20.47
2018-01-08T18:43:57.034Z,21.70
2018-01-08T18:46:26.562Z,18.70
2018-01-08T18:48:56.043Z,20.23
2018-01-08T18:51:25.546Z,20.00
2018-01-08T18:53:55.098Z,16.80
2018-01-08T18:56:24.537Z,22.20
2018-01-08T18:58:54.002Z,19.07
2018-01-08T19:01:23.552Z,17.47
2018-01-08T19:03:53.002Z,17.20
2018-01-08T19:06:22.471Z,16.90
2018-01-08T19:08:51.961Z,17.20
2018-01-08T19:11:21.421Z,17.83
2018-01-08T19:13:50.906Z,19.00
2018-01-08T19:16:20.358Z,18.80
2018-01-08T19:18:49.807Z,22.33
2018-01-08T19:21:19.385Z,18.10
2018-01-08T19:23:49.491Z,20.00
2018-01-08T19:26:19.051Z,21.03
2018-01-08T19:28:48.526Z,20.77
2018-01-08T19:31:17.988Z,19.27
2018-01-08T19:33:47.491Z,21.47
2018-01-08T19:36:16.808Z,23.10
2018-01-08T19:38:46.285Z,24.07
2018-01-08T19:41:15.749Z,20.67
2018-01-08T19:43:45.330Z,22.70
2018-01-08T19:46:14.788Z,21.20
2018-01-08T19:48:44.264Z,18.57
2018-01-08T19:51:13.712Z,20.77
2018-01-08T19:53:43.162Z,22.57
2018-01-08T19:56:12.646Z,20.37
2018-01-08T19:58:42.370Z,22.93
2018-01-08T20:01:11.826Z,21.20
2018-01-08T20:03:41.270Z,25.73
2018-01-08T20:06:10.869Z,27.53
2018-01-08T20:08:40.340Z,26.33
2018-01-08T20:11:09.830Z,28.10
2018-01-08T20:13:39.286Z,24.60
2018-01-08T20:16:08.777Z,34.80
2018-01-08T20:18:38.240Z,26.60
2018-01-08T20:21:07.690Z,24.43
2018-01-08T20:23:37.163Z,22.90
2018-01-08T20:26:06.658Z,25.53
2018-01-08T20:28:36.168Z,27.30
2018-01-08T20:31:05.617Z,26.83
2018-01-08T20:33:35.105Z,26.77
2018-01-08T20:36:04.564Z,29.87
2018-01-08T20:38:34.101Z,23.70
2018-01-08T20:41:03.560Z,29.70
2018-01-08T20:43:33.194Z,26.70
2018-01-08T20:46:02.641Z,25.83
2018-01-08T20:48:32.117Z,25.33
2018-01-08T20:51:01.580Z,31.50
2018-01-08T20:53:31.042Z,29.00
2018-01-08T20:56:00.689Z,25.90
2018-01-08T20:58:30.168Z,29.33
2018-01-08T21:00:59.678Z,30.37
2018-01-08T21:03:29.142Z,33.23
2018-01-08T21:05:58.638Z,29.23
2018-01-08T21:08:28.089Z,27.70
2018-01-08T21:10:57.567Z,30.60
2018-01-08T21:13:27.228Z,29.57
2018-01-08T21:15:56.711Z,25.27
2018-01-08T21:18:26.164Z,30.10
2018-01-08T21:20:55.659Z,28.40
2018-01-08T21:23:25.102Z,31.57
2018-01-08T21:25:54.574Z,30.30
2018-01-08T21:28:24.090Z,31.47
2018-01-08T21:30:53.647Z,31.73
2018-01-08T21:33:23.089Z,28.70
2018-01-08T21:35:52.572Z,33.10
2018-01-08T21:38:22.003Z,29.87
2018-01-08T21:40:51.485Z,30.50
2018-01-08T21:43:20.989Z,30.30
2018-01-08T21:45:50.452Z,30.13
2018-01-08T21:48:19.912Z,35.67
2018-01-08T21:50:49.354Z,32.97
2018-01-08T21:53:18.826Z,33.60
2018-01-08T21:55:48.288Z,32.43
2018-01-08T21:58:17.774Z,30.40
2018-01-08T22:00:47.257Z,33.70
2018-01-08T22:03:16.874Z,34.03
2018-01-08T22:05:46.322Z,32.10
2018-01-08T22:08:15.808Z,33.13
2018-01-08T22:10:45.444Z,32.23
2018-01-08T22:13:14.899Z,33.13
2018-01-08T22:15:44.357Z,31.17
2018-01-08T22:18:13.806Z,30.60
2018-01-08T22:20:43.279Z,31.87
2018-01-08T22:23:12.713Z,33.03
2018-01-08T22:25:42.174Z,33.07
2018-01-08T22:28:11.613Z,32.00
2018-01-08T22:30:41.083Z,40.37
2018-01-08T22:33:10.529Z,34.77
2018-01-08T22:35:39.993Z,32.37
2018-01-08T22:38:09.455Z,45.87
2018-01-08T22:40:39.022Z,44.00
2018-01-08T22:43:08.469Z,39.00
2018-01-08T22:45:37.946Z,38.67
2018-01-08T22:48:07.390Z,34.97
2018-01-08T22:50:36.838Z,31.47
2018-01-08T22:53:06.290Z,36.40
2018-01-08T22:55:36.022Z,51.22
2018-01-08T22:58:05.473Z,62.57
2018-01-08T23:00:34.917Z,45.77
2018-01-08T23:03:04.398Z,39.07
2018-01-08T23:05:33.902Z,49.93
2018-01-08T23:08:03.353Z,40.40
2018-01-08T23:10:32.807Z,42.67
2018-01-08T23:13:02.386Z,39.23
2018-01-08T23:15:31.830Z,52.50
2018-01-08T23:18:01.281Z,41.77
2018-01-08T23:20:30.720Z,33.63
2018-01-08T23:23:00.196Z,36.43
2018-01-08T23:25:29.642Z,34.70
2018-01-08T23:27:59.094Z,34.63
2018-01-08T23:30:28.531Z,33.90
2018-01-08T23:32:57.970Z,38.73
2018-01-08T23:35:27.472Z,47.10
2018-01-08T23:37:56.928Z,38.10
2018-01-08T23:40:26.369Z,42.27
2018-01-08T23:42:55.815Z,43.20
2018-01-08T23:45:25.333Z,38.93
2018-01-08T23:47:54.773Z,48.27
2018-01-08T23:50:24.235Z,35.00
2018-01-08T23:52:53.673Z,36.13
2018-01-08T23:55:23.154Z,28.60
2018-01-08T23:57:52.602Z,30.53
